sensor_id;sensor_type;location;lat;lon;timestamp;P1;durP1;ratioP1;P2;durP2;ratioP2
55328;SDS011;41205;44.264;19.884;2023-03-01T00:01:00;302.20;;;121.03;;
55328;SDS011;41205;44.264;19.884;2023-03-01T00:03:30;355.25;;;129.25;;
55328;SDS011;41205;44.264;19.884;2023-03-01T00:05:57;271.48;;;126.22;;
55328;SDS011;41205;44.264;19.884;2023-03-01T00:08:23;242.30;;;112.10;;
55328;SDS011;41205;44.264;19.884;2023-03-01T00:10:49;359.40;;;140.68;;
55328;SDS011;41205;44.264;19.884;2023-03-01T00:13:25;209.57;;;104.90;;
55328;SDS011;41205;44.264;19.884;2023-03-01T00:15:51;228.40;;;109.28;;
55328;SDS011;41205;44.264;19.884;2023-03-01T00:18:16;418.52;;;137.77;;
55328;SDS011;41205;44.264;19.884;2023-03-01T00:20:48;340.73;;;132.18;;
55328;SDS011;41205;44.264;19.884;2023-03-01T00:23:16;270.70;;;109.03;;
55328;SDS011;41205;44.264;19.884;2023-03-01T00:25:42;181.07;;;92.35;;
55328;SDS011;41205;44.264;19.884;2023-03-01T00:28:08;270.15;;;112.90;;
55328;SDS011;41205;44.264;19.884;2023-03-01T00:30:34;162.18;;;83.82;;
55328;SDS011;41205;44.264;19.884;2023-03-01T00:32:59;152.25;;;74.97;;
55328;SDS011;41205;44.264;19.884;2023-03-01T00:35:25;153.35;;;77.68;;
55328;SDS011;41205;44.264;19.884;2023-03-01T00:37:51;121.85;;;61.28;;
55328;SDS011;41205;44.264;19.884;2023-03-01T00:40:23;90.63;;;45.40;;
55328;SDS011;41205;44.264;19.884;2023-03-01T00:42:49;120.18;;;67.10;;
55328;SDS011;41205;44.264;19.884;2023-03-01T00:45:15;120.90;;;64.18;;
55328;SDS011;41205;44.264;19.884;2023-03-01T00:47:41;127.63;;;67.90;;
55328;SDS011;41205;44.264;19.884;2023-03-01T00:50:07;131.68;;;68.60;;
55328;SDS011;41205;44.264;19.884;2023-03-01T00:52:33;127.38;;;69.32;;
55328;SDS011;41205;44.264;19.884;2023-03-01T00:54:59;113.78;;;63.35;;
55328;SDS011;41205;44.264;19.884;2023-03-01T00:57:25;127.43;;;63.55;;
55328;SDS011;41205;44.264;19.884;2023-03-01T00:59:51;130.38;;;68.63;;
55328;SDS011;41205;44.264;19.884;2023-03-01T01:02:19;128.13;;;75.32;;
55328;SDS011;41205;44.264;19.884;2023-03-01T01:04:46;254.55;;;97.53;;
55328;SDS011;41205;44.264;19.884;2023-03-01T01:07:12;153.10;;;70.07;;
55328;SDS011;41205;44.264;19.884;2023-03-01T01:09:39;145.05;;;77.13;;
55328;SDS011;41205;44.264;19.884;2023-03-01T01:12:05;190.02;;;106.97;;
55328;SDS011;41205;44.264;19.884;2023-03-01T01:14:31;163.27;;;89.32;;
55328;SDS011;41205;44.264;19.884;2023-03-01T01:16:57;157.80;;;82.85;;
55328;SDS011;41205;44.264;19.884;2023-03-01T01:19:23;140.07;;;74.25;;
55328;SDS011;41205;44.264;19.884;2023-03-01T01:21:50;134.77;;;76.95;;
55328;SDS011;41205;44.264;19.884;2023-03-01T01:24:15;182.63;;;104.68;;
55328;SDS011;41205;44.264;19.884;2023-03-01T01:26:42;137.35;;;74.55;;
55328;SDS011;41205;44.264;19.884;2023-03-01T01:29:08;136.95;;;76.28;;
55328;SDS011;41205;44.264;19.884;2023-03-01T01:31:35;112.22;;;62.53;;
55328;SDS011;41205;44.264;19.884;2023-03-01T01:34:04;122.38;;;65.68;;
55328;SDS011;41205;44.264;19.884;2023-03-01T01:36:31;95.50;;;53.28;;
55328;SDS011;41205;44.264;19.884;2023-03-01T01:38:57;93.68;;;45.67;;
55328;SDS011;41205;44.264;19.884;2023-03-01T01:41:24;110.15;;;56.63;;
55328;SDS011;41205;44.264;19.884;2023-03-01T01:51:49;75.18;;;43.72;;
55328;SDS011;41205;44.264;19.884;2023-03-01T01:54:25;66.78;;;35.78;;
55328;SDS011;41205;44.264;19.884;2023-03-01T01:56:58;68.43;;;39.35;;
55328;SDS011;41205;44.264;19.884;2023-03-01T01:59:28;87.72;;;52.22;;
55328;SDS011;41205;44.264;19.884;2023-03-01T02:01:58;85.90;;;53.42;;
55328;SDS011;41205;44.264;19.884;2023-03-01T02:04:25;83.60;;;43.47;;
55328;SDS011;41205;44.264;19.884;2023-03-01T02:06:53;70.07;;;40.72;;
55328;SDS011;41205;44.264;19.884;2023-03-01T02:09:25;74.85;;;45.10;;
55328;SDS011;41205;44.264;19.884;2023-03-01T02:11:51;71.25;;;38.67;;
55328;SDS011;41205;44.264;19.884;2023-03-01T02:14:19;76.85;;;44.28;;
55328;SDS011;41205;44.264;19.884;2023-03-01T02:16:45;77.50;;;46.00;;
55328;SDS011;41205;44.264;19.884;2023-03-01T02:19:13;63.17;;;36.25;;
55328;SDS011;41205;44.264;19.884;2023-03-01T02:27:50;90.07;;;52.03;;
55328;SDS011;41205;44.264;19.884;2023-03-01T02:30:36;66.73;;;39.47;;
55328;SDS011;41205;44.264;19.884;2023-03-01T02:33:02;63.40;;;37.00;;
55328;SDS011;41205;44.264;19.884;2023-03-01T02:35:32;84.50;;;46.60;;
55328;SDS011;41205;44.264;19.884;2023-03-01T02:38:03;49.28;;;27.33;;
55328;SDS011;41205;44.264;19.884;2023-03-01T02:40:33;69.00;;;36.38;;
55328;SDS011;41205;44.264;19.884;2023-03-01T02:42:59;61.83;;;33.15;;
55328;SDS011;41205;44.264;19.884;2023-03-01T02:45:26;77.05;;;44.63;;
55328;SDS011;41205;44.264;19.884;2023-03-01T02:47:55;66.90;;;35.85;;
55328;SDS011;41205;44.264;19.884;2023-03-01T02:53:11;66.35;;;39.60;;
55328;SDS011;41205;44.264;19.884;2023-03-01T02:55:47;49.08;;;27.98;;
55328;SDS011;41205;44.264;19.884;2023-03-01T02:58:13;67.10;;;37.95;;
55328;SDS011;41205;44.264;19.884;2023-03-01T03:00:40;89.97;;;53.70;;
55328;SDS011;41205;44.264;19.884;2023-03-01T03:03:20;65.43;;;38.20;;
55328;SDS011;41205;44.264;19.884;2023-03-01T03:05:47;48.35;;;27.35;;
55328;SDS011;41205;44.264;19.884;2023-03-01T03:08:13;48.50;;;31.17;;
55328;SDS011;41205;44.264;19.884;2023-03-01T03:10:44;67.95;;;45.25;;
55328;SDS011;41205;44.264;19.884;2023-03-01T03:13:11;96.95;;;58.03;;
55328;SDS011;41205;44.264;19.884;2023-03-01T03:15:38;77.63;;;44.95;;
55328;SDS011;41205;44.264;19.884;2023-03-01T03:18:10;51.97;;;31.67;;
55328;SDS011;41205;44.264;19.884;2023-03-01T03:20:38;57.03;;;31.80;;
55328;SDS011;41205;44.264;19.884;2023-03-01T03:23:05;57.35;;;35.33;;
55328;SDS011;41205;44.264;19.884;2023-03-01T03:25:31;50.10;;;27.83;;
55328;SDS011;41205;44.264;19.884;2023-03-01T03:27:57;44.42;;;24.85;;
55328;SDS011;41205;44.264;19.884;2023-03-01T03:30:24;44.95;;;26.65;;
55328;SDS011;41205;44.264;19.884;2023-03-01T03:32:52;61.33;;;36.95;;
55328;SDS011;41205;44.264;19.884;2023-03-01T03:35:18;49.65;;;28.00;;
55328;SDS011;41205;44.264;19.884;2023-03-01T03:37:49;44.25;;;28.65;;
55328;SDS011;41205;44.264;19.884;2023-03-01T03:40:37;47.85;;;25.75;;
55328;SDS011;41205;44.264;19.884;2023-03-01T03:43:05;51.22;;;29.63;;
55328;SDS011;41205;44.264;19.884;2023-03-01T03:45:39;52.55;;;32.03;;
55328;SDS011;41205;44.264;19.884;2023-03-01T03:48:05;40.63;;;26.35;;
55328;SDS011;41205;44.264;19.884;2023-03-01T03:50:33;45.80;;;26.55;;
55328;SDS011;41205;44.264;19.884;2023-03-01T03:53:02;39.47;;;23.45;;
55328;SDS011;41205;44.264;19.884;2023-03-01T03:55:29;35.45;;;19.70;;
55328;SDS011;41205;44.264;19.884;2023-03-01T03:57:59;28.95;;;18.58;;
55328;SDS011;41205;44.264;19.884;2023-03-01T04:00:31;29.25;;;19.42;;
55328;SDS011;41205;44.264;19.884;2023-03-01T04:02:59;34.20;;;18.80;;
55328;SDS011;41205;44.264;19.884;2023-03-01T04:05:26;28.35;;;16.85;;
55328;SDS011;41205;44.264;19.884;2023-03-01T04:07:52;31.40;;;18.10;;
55328;SDS011;41205;44.264;19.884;2023-03-01T04:10:26;29.35;;;18.85;;
55328;SDS011;41205;44.264;19.884;2023-03-01T04:12:56;34.75;;;18.13;;
55328;SDS011;41205;44.264;19.884;2023-03-01T04:15:22;26.58;;;16.80;;
55328;SDS011;41205;44.264;19.884;2023-03-01T04:17:50;31.15;;;18.88;;
55328;SDS011;41205;44.264;19.884;2023-03-01T04:20:18;31.27;;;20.30;;
55328;SDS011;41205;44.264;19.884;2023-03-01T04:22:57;34.47;;;22.52;;
55328;SDS011;41205;44.264;19.884;2023-03-01T04:26:08;31.48;;;20.23;;
55328;SDS011;41205;44.264;19.884;2023-03-01T04:28:29;54.33;;;25.60;;
55328;SDS011;41205;44.264;19.884;2023-03-01T04:30:57;50.70;;;26.92;;
55328;SDS011;41205;44.264;19.884;2023-03-01T04:33:24;70.90;;;32.67;;
55328;SDS011;41205;44.264;19.884;2023-03-01T04:35:50;55.90;;;29.55;;
55328;SDS011;41205;44.264;19.884;2023-03-01T04:38:17;51.25;;;27.30;;
55328;SDS011;41205;44.264;19.884;2023-03-01T04:40:43;39.83;;;24.42;;
55328;SDS011;41205;44.264;19.884;2023-03-01T04:43:10;44.05;;;25.30;;
55328;SDS011;41205;44.264;19.884;2023-03-01T04:45:38;47.45;;;24.90;;
55328;SDS011;41205;44.264;19.884;2023-03-01T04:48:04;37.28;;;22.38;;
55328;SDS011;41205;44.264;19.884;2023-03-01T04:50:29;38.42;;;23.25;;
55328;SDS011;41205;44.264;19.884;2023-03-01T04:52:55;47.08;;;30.17;;
55328;SDS011;41205;44.264;19.884;2023-03-01T04:55:24;45.92;;;25.33;;
55328;SDS011;41205;44.264;19.884;2023-03-01T04:57:52;38.95;;;22.58;;
55328;SDS011;41205;44.264;19.884;2023-03-01T05:00:19;35.13;;;21.63;;
55328;SDS011;41205;44.264;19.884;2023-03-01T05:02:46;35.40;;;20.17;;
55328;SDS011;41205;44.264;19.884;2023-03-01T05:05:13;41.35;;;23.65;;
55328;SDS011;41205;44.264;19.884;2023-03-01T05:07:40;49.72;;;27.83;;
55328;SDS011;41205;44.264;19.884;2023-03-01T05:10:06;52.38;;;29.35;;
55328;SDS011;41205;44.264;19.884;2023-03-01T05:12:31;50.50;;;28.80;;
55328;SDS011;41205;44.264;19.884;2023-03-01T05:14:57;40.80;;;24.77;;
55328;SDS011;41205;44.264;19.884;2023-03-01T05:17:23;42.92;;;26.77;;
55328;SDS011;41205;44.264;19.884;2023-03-01T05:19:49;42.80;;;25.73;;
55328;SDS011;41205;44.264;19.884;2023-03-01T05:22:15;61.92;;;31.77;;
55328;SDS011;41205;44.264;19.884;2023-03-01T05:24:44;48.90;;;26.38;;
55328;SDS011;41205;44.264;19.884;2023-03-01T05:27:11;48.88;;;27.52;;
55328;SDS011;41205;44.264;19.884;2023-03-01T05:29:37;44.78;;;26.50;;
55328;SDS011;41205;44.264;19.884;2023-03-01T05:32:04;46.92;;;27.33;;
55328;SDS011;41205;44.264;19.884;2023-03-01T05:34:31;41.10;;;23.52;;
55328;SDS011;41205;44.264;19.884;2023-03-01T05:36:58;56.50;;;31.52;;
55328;SDS011;41205;44.264;19.884;2023-03-01T05:39:26;54.25;;;29.60;;
55328;SDS011;41205;44.264;19.884;2023-03-01T05:41:53;49.00;;;27.38;;
55328;SDS011;41205;44.264;19.884;2023-03-01T05:44:20;97.20;;;51.38;;
55328;SDS011;41205;44.264;19.884;2023-03-01T05:46:46;118.47;;;66.15;;
55328;SDS011;41205;44.264;19.884;2023-03-01T05:49:14;129.40;;;69.13;;
55328;SDS011;41205;44.264;19.884;2023-03-01T05:51:41;123.78;;;60.00;;
55328;SDS011;41205;44.264;19.884;2023-03-01T05:54:08;92.18;;;49.35;;
55328;SDS011;41205;44.264;19.884;2023-03-01T05:56:35;71.38;;;41.80;;
55328;SDS011;41205;44.264;19.884;2023-03-01T05:59:02;70.78;;;39.80;;
55328;SDS011;41205;44.264;19.884;2023-03-01T06:01:28;70.63;;;42.17;;
55328;SDS011;41205;44.264;19.884;2023-03-01T06:03:54;90.18;;;50.47;;
55328;SDS011;41205;44.264;19.884;2023-03-01T06:06:20;82.45;;;43.72;;
55328;SDS011;41205;44.264;19.884;2023-03-01T06:08:46;59.08;;;35.03;;
55328;SDS011;41205;44.264;19.884;2023-03-01T06:11:12;56.40;;;32.50;;
55328;SDS011;41205;44.264;19.884;2023-03-01T06:13:38;52.65;;;31.40;;
55328;SDS011;41205;44.264;19.884;2023-03-01T06:16:04;71.70;;;42.80;;
55328;SDS011;41205;44.264;19.884;2023-03-01T06:18:31;66.32;;;39.35;;
55328;SDS011;41205;44.264;19.884;2023-03-01T06:20:57;71.07;;;43.08;;
55328;SDS011;41205;44.264;19.884;2023-03-01T06:23:23;75.53;;;45.35;;
55328;SDS011;41205;44.264;19.884;2023-03-01T06:25:49;64.03;;;42.33;;
55328;SDS011;41205;44.264;19.884;2023-03-01T06:28:15;113.78;;;63.33;;
55328;SDS011;41205;44.264;19.884;2023-03-01T06:30:40;127.60;;;71.53;;
55328;SDS011;41205;44.264;19.884;2023-03-01T06:33:06;85.72;;;50.38;;
55328;SDS011;41205;44.264;19.884;2023-03-01T06:35:32;81.32;;;50.17;;
55328;SDS011;41205;44.264;19.884;2023-03-01T06:37:59;98.95;;;54.35;;
55328;SDS011;41205;44.264;19.884;2023-03-01T06:40:26;107.43;;;67.32;;
55328;SDS011;41205;44.264;19.884;2023-03-01T06:42:52;124.10;;;74.75;;
55328;SDS011;41205;44.264;19.884;2023-03-01T06:45:19;98.57;;;57.42;;
55328;SDS011;41205;44.264;19.884;2023-03-01T06:47:45;101.00;;;57.53;;
55328;SDS011;41205;44.264;19.884;2023-03-01T06:50:11;97.35;;;57.13;;
55328;SDS011;41205;44.264;19.884;2023-03-01T06:52:37;84.13;;;53.58;;
55328;SDS011;41205;44.264;19.884;2023-03-01T06:55:03;86.53;;;54.15;;
55328;SDS011;41205;44.264;19.884;2023-03-01T06:57:30;80.93;;;45.15;;
55328;SDS011;41205;44.264;19.884;2023-03-01T06:59:55;190.82;;;108.93;;
55328;SDS011;41205;44.264;19.884;2023-03-01T07:02:21;174.50;;;105.53;;
55328;SDS011;41205;44.264;19.884;2023-03-01T07:04:51;137.02;;;81.60;;
55328;SDS011;41205;44.264;19.884;2023-03-01T07:07:17;124.15;;;65.18;;
55328;SDS011;41205;44.264;19.884;2023-03-01T07:09:45;101.97;;;57.03;;
55328;SDS011;41205;44.264;19.884;2023-03-01T07:12:13;119.80;;;70.47;;
55328;SDS011;41205;44.264;19.884;2023-03-01T07:14:39;144.82;;;81.75;;
55328;SDS011;41205;44.264;19.884;2023-03-01T07:17:04;124.20;;;76.10;;
55328;SDS011;41205;44.264;19.884;2023-03-01T07:19:30;125.47;;;77.40;;
55328;SDS011;41205;44.264;19.884;2023-03-01T07:21:56;131.05;;;77.97;;
55328;SDS011;41205;44.264;19.884;2023-03-01T07:24:22;135.32;;;79.63;;
55328;SDS011;41205;44.264;19.884;2023-03-01T07:26:48;132.93;;;88.75;;
55328;SDS011;41205;44.264;19.884;2023-03-01T07:29:15;142.48;;;89.53;;
55328;SDS011;41205;44.264;19.884;2023-03-01T07:31:41;100.95;;;57.35;;
55328;SDS011;41205;44.264;19.884;2023-03-01T07:34:07;144.13;;;84.95;;
55328;SDS011;41205;44.264;19.884;2023-03-01T07:36:32;86.68;;;48.28;;
55328;SDS011;41205;44.264;19.884;2023-03-01T07:38:58;72.60;;;50.80;;
55328;SDS011;41205;44.264;19.884;2023-03-01T07:41:25;65.05;;;37.72;;
55328;SDS011;41205;44.264;19.884;2023-03-01T07:43:51;65.35;;;45.90;;
55328;SDS011;41205;44.264;19.884;2023-03-01T07:46:16;88.32;;;52.95;;
55328;SDS011;41205;44.264;19.884;2023-03-01T07:48:44;90.47;;;62.28;;
55328;SDS011;41205;44.264;19.884;2023-03-01T07:51:10;121.93;;;74.15;;
55328;SDS011;41205;44.264;19.884;2023-03-01T07:53:36;65.28;;;43.42;;
55328;SDS011;41205;44.264;19.884;2023-03-01T07:58:30;80.80;;;47.92;;
55328;SDS011;41205;44.264;19.884;2023-03-01T08:01:00;69.75;;;42.22;;
55328;SDS011;41205;44.264;19.884;2023-03-01T08:03:30;70.53;;;47.45;;
55328;SDS011;41205;44.264;19.884;2023-03-01T08:05:55;72.45;;;44.55;;
55328;SDS011;41205;44.264;19.884;2023-03-01T08:08:23;86.13;;;55.00;;
55328;SDS011;41205;44.264;19.884;2023-03-01T08:10:49;100.50;;;60.85;;
55328;SDS011;41205;44.264;19.884;2023-03-01T08:13:15;89.07;;;57.72;;
55328;SDS011;41205;44.264;19.884;2023-03-01T08:15:41;124.13;;;82.18;;
55328;SDS011;41205;44.264;19.884;2023-03-01T08:18:06;116.18;;;75.95;;
55328;SDS011;41205;44.264;19.884;2023-03-01T08:20:32;123.55;;;80.05;;
55328;SDS011;41205;44.264;19.884;2023-03-01T08:22:58;112.03;;;71.85;;
55328;SDS011;41205;44.264;19.884;2023-03-01T08:25:23;97.32;;;61.78;;
55328;SDS011;41205;44.264;19.884;2023-03-01T08:27:49;85.45;;;56.10;;
55328;SDS011;41205;44.264;19.884;2023-03-01T08:30:15;103.13;;;69.32;;
55328;SDS011;41205;44.264;19.884;2023-03-01T08:32:40;73.18;;;45.67;;
55328;SDS011;41205;44.264;19.884;2023-03-01T08:35:06;74.07;;;47.60;;
55328;SDS011;41205;44.264;19.884;2023-03-01T08:37:32;70.72;;;51.25;;
55328;SDS011;41205;44.264;19.884;2023-03-01T08:39:59;76.18;;;51.13;;
55328;SDS011;41205;44.264;19.884;2023-03-01T08:42:25;61.28;;;39.10;;
55328;SDS011;41205;44.264;19.884;2023-03-01T08:44:51;89.80;;;58.63;;
55328;SDS011;41205;44.264;19.884;2023-03-01T08:47:17;82.03;;;47.70;;
55328;SDS011;41205;44.264;19.884;2023-03-01T08:49:42;102.18;;;65.68;;
55328;SDS011;41205;44.264;19.884;2023-03-01T08:52:08;99.72;;;57.10;;
55328;SDS011;41205;44.264;19.884;2023-03-01T08:54:34;60.20;;;36.55;;
55328;SDS011;41205;44.264;19.884;2023-03-01T08:57:02;63.00;;;39.85;;
55328;SDS011;41205;44.264;19.884;2023-03-01T08:59:28;71.68;;;42.00;;
55328;SDS011;41205;44.264;19.884;2023-03-01T09:01:55;86.18;;;51.25;;
55328;SDS011;41205;44.264;19.884;2023-03-01T09:04:20;56.67;;;37.67;;
55328;SDS011;41205;44.264;19.884;2023-03-01T09:06:46;66.85;;;42.90;;
55328;SDS011;41205;44.264;19.884;2023-03-01T09:09:13;53.55;;;36.58;;
55328;SDS011;41205;44.264;19.884;2023-03-01T09:11:41;58.08;;;35.97;;
55328;SDS011;41205;44.264;19.884;2023-03-01T09:14:08;174.40;;;107.90;;
55328;SDS011;41205;44.264;19.884;2023-03-01T09:16:34;77.80;;;43.10;;
55328;SDS011;41205;44.264;19.884;2023-03-01T09:19:03;68.85;;;39.50;;
55328;SDS011;41205;44.264;19.884;2023-03-01T09:21:29;64.80;;;41.30;;
55328;SDS011;41205;44.264;19.884;2023-03-01T09:23:56;55.20;;;36.65;;
55328;SDS011;41205;44.264;19.884;2023-03-01T09:26:22;61.78;;;37.78;;
55328;SDS011;41205;44.264;19.884;2023-03-01T09:28:49;65.90;;;44.00;;
55328;SDS011;41205;44.264;19.884;2023-03-01T09:31:16;72.18;;;45.85;;
55328;SDS011;41205;44.264;19.884;2023-03-01T09:33:45;95.82;;;60.22;;
55328;SDS011;41205;44.264;19.884;2023-03-01T09:36:13;74.63;;;44.67;;
55328;SDS011;41205;44.264;19.884;2023-03-01T09:38:43;87.95;;;55.47;;
55328;SDS011;41205;44.264;19.884;2023-03-01T09:41:23;135.73;;;81.90;;
55328;SDS011;41205;44.264;19.884;2023-03-01T09:44:20;129.20;;;80.78;;
55328;SDS011;41205;44.264;19.884;2023-03-01T09:46:46;86.30;;;52.78;;
55328;SDS011;41205;44.264;19.884;2023-03-01T09:49:17;85.97;;;51.60;;
55328;SDS011;41205;44.264;19.884;2023-03-01T09:51:55;93.90;;;58.22;;
55328;SDS011;41205;44.264;19.884;2023-03-01T09:54:46;75.53;;;45.45;;
55328;SDS011;41205;44.264;19.884;2023-03-01T10:02:43;88.05;;;53.10;;
55328;SDS011;41205;44.264;19.884;2023-03-01T10:08:14;107.57;;;66.60;;
55328;SDS011;41205;44.264;19.884;2023-03-01T10:10:46;113.38;;;72.63;;
55328;SDS011;41205;44.264;19.884;2023-03-01T10:13:15;102.90;;;64.35;;
55328;SDS011;41205;44.264;19.884;2023-03-01T10:15:50;136.35;;;92.85;;
55328;SDS011;41205;44.264;19.884;2023-03-01T10:18:37;155.82;;;98.85;;
55328;SDS011;41205;44.264;19.884;2023-03-01T10:21:13;134.63;;;88.22;;
55328;SDS011;41205;44.264;19.884;2023-03-01T10:23:41;105.05;;;63.58;;
55328;SDS011;41205;44.264;19.884;2023-03-01T10:26:29;90.20;;;54.70;;
55328;SDS011;41205;44.264;19.884;2023-03-01T10:29:01;92.20;;;52.78;;
55328;SDS011;41205;44.264;19.884;2023-03-01T10:31:39;96.47;;;60.83;;
55328;SDS011;41205;44.264;19.884;2023-03-01T10:34:14;98.78;;;61.33;;
55328;SDS011;41205;44.264;19.884;2023-03-01T10:36:43;79.53;;;52.00;;
55328;SDS011;41205;44.264;19.884;2023-03-01T10:39:17;72.60;;;43.80;;
55328;SDS011;41205;44.264;19.884;2023-03-01T10:44:40;65.88;;;40.13;;
55328;SDS011;41205;44.264;19.884;2023-03-01T10:47:12;74.75;;;46.80;;
55328;SDS011;41205;44.264;19.884;2023-03-01T10:49:59;68.82;;;43.78;;
55328;SDS011;41205;44.264;19.884;2023-03-01T10:54:59;82.32;;;48.08;;
55328;SDS011;41205;44.264;19.884;2023-03-01T10:57:49;87.45;;;55.17;;
55328;SDS011;41205;44.264;19.884;2023-03-01T11:02:49;88.07;;;60.15;;
55328;SDS011;41205;44.264;19.884;2023-03-01T11:05:36;93.93;;;59.67;;
55328;SDS011;41205;44.264;19.884;2023-03-01T11:08:14;83.53;;;56.35;;
55328;SDS011;41205;44.264;19.884;2023-03-01T11:10:40;82.32;;;51.55;;
55328;SDS011;41205;44.264;19.884;2023-03-01T11:13:16;118.30;;;80.97;;
55328;SDS011;41205;44.264;19.884;2023-03-01T11:15:43;113.15;;;71.35;;
55328;SDS011;41205;44.264;19.884;2023-03-01T11:18:27;111.95;;;67.97;;
55328;SDS011;41205;44.264;19.884;2023-03-01T11:20:55;102.30;;;62.15;;
55328;SDS011;41205;44.264;19.884;2023-03-01T11:23:24;87.78;;;60.20;;
55328;SDS011;41205;44.264;19.884;2023-03-01T11:25:55;92.50;;;63.88;;
55328;SDS011;41205;44.264;19.884;2023-03-01T11:28:27;70.90;;;47.78;;
55328;SDS011;41205;44.264;19.884;2023-03-01T11:33:24;57.13;;;39.05;;
55328;SDS011;41205;44.264;19.884;2023-03-01T11:36:16;55.13;;;33.22;;
55328;SDS011;41205;44.264;19.884;2023-03-01T11:38:56;49.08;;;31.58;;
55328;SDS011;41205;44.264;19.884;2023-03-01T11:44:00;64.10;;;41.13;;
55328;SDS011;41205;44.264;19.884;2023-03-01T11:52:29;47.63;;;33.38;;
55328;SDS011;41205;44.264;19.884;2023-03-01T11:57:47;48.15;;;30.20;;
55328;SDS011;41205;44.264;19.884;2023-03-01T12:16:13;78.47;;;48.92;;
55328;SDS011;41205;44.264;19.884;2023-03-01T12:23:58;84.65;;;53.50;;
55328;SDS011;41205;44.264;19.884;2023-03-01T12:29:36;80.30;;;51.55;;
55328;SDS011;41205;44.264;19.884;2023-03-01T12:35:32;83.70;;;50.97;;
55328;SDS011;41205;44.264;19.884;2023-03-01T12:38:22;85.13;;;59.50;;
55328;SDS011;41205;44.264;19.884;2023-03-01T12:44:06;90.63;;;56.60;;
55328;SDS011;41205;44.264;19.884;2023-03-01T12:49:38;85.80;;;53.08;;
55328;SDS011;41205;44.264;19.884;2023-03-01T12:52:15;92.50;;;61.20;;
55328;SDS011;41205;44.264;19.884;2023-03-01T12:54:51;130.93;;;92.32;;
55328;SDS011;41205;44.264;19.884;2023-03-01T13:09:09;115.28;;;74.80;;
55328;SDS011;41205;44.264;19.884;2023-03-01T13:11:58;113.53;;;74.43;;
55328;SDS011;41205;44.264;19.884;2023-03-01T13:14:34;102.57;;;64.75;;
55328;SDS011;41205;44.264;19.884;2023-03-01T13:17:01;104.72;;;65.25;;
55328;SDS011;41205;44.264;19.884;2023-03-01T13:19:28;98.65;;;63.08;;
55328;SDS011;41205;44.264;19.884;2023-03-01T13:21:55;106.10;;;66.82;;
55328;SDS011;41205;44.264;19.884;2023-03-01T13:24:40;92.07;;;59.78;;
55328;SDS011;41205;44.264;19.884;2023-03-01T13:32:25;88.45;;;56.42;;
55328;SDS011;41205;44.264;19.884;2023-03-01T13:34:58;89.60;;;60.35;;
55328;SDS011;41205;44.264;19.884;2023-03-01T13:37:26;69.80;;;42.75;;
55328;SDS011;41205;44.264;19.884;2023-03-01T13:39:55;74.25;;;43.90;;
55328;SDS011;41205;44.264;19.884;2023-03-01T13:45:02;64.15;;;37.33;;
55328;SDS011;41205;44.264;19.884;2023-03-01T13:47:52;61.35;;;37.58;;
55328;SDS011;41205;44.264;19.884;2023-03-01T13:52:57;58.10;;;38.38;;
55328;SDS011;41205;44.264;19.884;2023-03-01T13:58:14;61.45;;;39.40;;
55328;SDS011;41205;44.264;19.884;2023-03-01T14:00:40;57.00;;;38.30;;
55328;SDS011;41205;44.264;19.884;2023-03-01T14:03:11;64.40;;;40.05;;
55328;SDS011;41205;44.264;19.884;2023-03-01T14:05:44;62.53;;;40.75;;
55328;SDS011;41205;44.264;19.884;2023-03-01T14:08:23;65.32;;;41.17;;
55328;SDS011;41205;44.264;19.884;2023-03-01T14:21:41;79.65;;;46.55;;
55328;SDS011;41205;44.264;19.884;2023-03-01T14:24:15;72.00;;;44.22;;
55328;SDS011;41205;44.264;19.884;2023-03-01T14:26:44;70.57;;;44.15;;
55328;SDS011;41205;44.264;19.884;2023-03-01T14:29:23;76.07;;;48.00;;
55328;SDS011;41205;44.264;19.884;2023-03-01T14:31:53;67.35;;;43.22;;
55328;SDS011;41205;44.264;19.884;2023-03-01T14:34:22;81.95;;;49.05;;
55328;SDS011;41205;44.264;19.884;2023-03-01T14:36:49;74.32;;;44.42;;
55328;SDS011;41205;44.264;19.884;2023-03-01T14:39:19;84.03;;;49.65;;
55328;SDS011;41205;44.264;19.884;2023-03-01T14:44:16;83.70;;;49.53;;
55328;SDS011;41205;44.264;19.884;2023-03-01T14:46:51;86.90;;;52.72;;
55328;SDS011;41205;44.264;19.884;2023-03-01T14:49:20;89.43;;;52.90;;
55328;SDS011;41205;44.264;19.884;2023-03-01T14:52:07;89.70;;;53.28;;
55328;SDS011;41205;44.264;19.884;2023-03-01T14:54:47;87.75;;;50.70;;
55328;SDS011;41205;44.264;19.884;2023-03-01T14:57:16;85.28;;;50.42;;
55328;SDS011;41205;44.264;19.884;2023-03-01T14:59:42;86.82;;;48.95;;
55328;SDS011;41205;44.264;19.884;2023-03-01T15:02:11;71.43;;;47.58;;
55328;SDS011;41205;44.264;19.884;2023-03-01T15:04:49;86.95;;;41.60;;
55328;SDS011;41205;44.264;19.884;2023-03-01T15:07:21;78.78;;;45.45;;
55328;SDS011;41205;44.264;19.884;2023-03-01T15:09:51;81.53;;;44.95;;
55328;SDS011;41205;44.264;19.884;2023-03-01T15:12:24;85.85;;;50.25;;
55328;SDS011;41205;44.264;19.884;2023-03-01T15:14:53;87.15;;;50.95;;
55328;SDS011;41205;44.264;19.884;2023-03-01T15:17:28;91.60;;;54.53;;
55328;SDS011;41205;44.264;19.884;2023-03-01T15:19:57;83.35;;;50.72;;
55328;SDS011;41205;44.264;19.884;2023-03-01T15:22:25;111.63;;;62.85;;
55328;SDS011;41205;44.264;19.884;2023-03-01T15:24:51;158.15;;;98.00;;
55328;SDS011;41205;44.264;19.884;2023-03-01T15:27:21;160.05;;;106.38;;
55328;SDS011;41205;44.264;19.884;2023-03-01T15:29:50;150.15;;;93.90;;
55328;SDS011;41205;44.264;19.884;2023-03-01T15:34:53;135.27;;;85.68;;
55328;SDS011;41205;44.264;19.884;2023-03-01T15:43:05;107.32;;;70.28;;
55328;SDS011;41205;44.264;19.884;2023-03-01T15:45:57;111.18;;;65.22;;
55328;SDS011;41205;44.264;19.884;2023-03-01T15:48:23;100.72;;;57.55;;
55328;SDS011;41205;44.264;19.884;2023-03-01T15:50:54;95.20;;;60.45;;
55328;SDS011;41205;44.264;19.884;2023-03-01T15:55:51;111.82;;;68.97;;
55328;SDS011;41205;44.264;19.884;2023-03-01T15:58:21;98.25;;;63.17;;
55328;SDS011;41205;44.264;19.884;2023-03-01T16:00:49;93.88;;;59.40;;
55328;SDS011;41205;44.264;19.884;2023-03-01T16:03:20;101.85;;;60.60;;
55328;SDS011;41205;44.264;19.884;2023-03-01T16:05:47;96.85;;;58.30;;
55328;SDS011;41205;44.264;19.884;2023-03-01T16:08:13;88.85;;;52.47;;
55328;SDS011;41205;44.264;19.884;2023-03-01T16:10:40;86.15;;;52.50;;
55328;SDS011;41205;44.264;19.884;2023-03-01T16:13:10;143.35;;;101.53;;
55328;SDS011;41205;44.264;19.884;2023-03-01T16:15:36;83.13;;;52.90;;
55328;SDS011;41205;44.264;19.884;2023-03-01T16:18:03;96.00;;;51.25;;
55328;SDS011;41205;44.264;19.884;2023-03-01T16:20:35;80.18;;;47.55;;
55328;SDS011;41205;44.264;19.884;2023-03-01T16:23:02;83.93;;;49.58;;
55328;SDS011;41205;44.264;19.884;2023-03-01T16:25:31;80.07;;;45.10;;
55328;SDS011;41205;44.264;19.884;2023-03-01T16:27:57;79.97;;;46.05;;